Terminal Aerodrome Forecast
Issued by NWS Wilmington, NC

Home | Current Version | Previous Version | Text Only | Print | Product List | Glossary On
Versions: 1 2 3 4 5 6 7 8 9 10 11 12 13 14 15 16 17 18 19 20
000
FTUS42 KILM 031730 AAB
TAFMYR
TAF AMD
KMYR 031730Z 0317/0418 22010G17KT P6SM VCTS SCT030CB BKN100
      TEMPO 0318/0320 4SM TSRA BKN020CB
     FM032000 20012G20KT P6SM SCT020 BKN120
     FM040100 19009KT P6SM VCSH BKN025 BKN120
     FM040500 18009KT 6SM -SHRA SCT025 SCT060 BKN120
     FM041200 18011KT 4SM SHRA BKN020 OVC050=

USA.gov is the U.S. government's official web portal to all federal, state and local government web resources and services.